Time;durP1;ratioP1;P1;durP2;ratioP2;P2;SDS_P1;SDS_P2;PMS_P1;PMS_P2;Temp;Humidity;BMP_temperature;BMP_pressure;BME280_temperature;BME280_humidity;BME280_pressure;Samples;Min_cycle;Max_cycle;Signal;HPM_P1;HPM_P2
2022/05/05 00:04:22;;;;;;;8.70;4.03;;;9.70;99.90;;;;;;12384227;28;20046;-37
2022/05/05 00:16:44;;;;;;;10.32;3.70;;;9.70;99.90;;;;;;12382470;28;20447;-37
2022/05/05 00:22:46;;;;;;;10.60;3.85;;;9.60;99.90;;;;;;12381385;28;20145;-36
2022/05/05 00:28:48;;;;;;;10.40;4.40;;;9.50;99.90;;;;;;12380490;28;20533;-38
2022/05/05 00:34:50;;;;;;;12.43;3.90;;;9.40;99.90;;;;;;12379676;28;20074;-36
2022/05/05 00:40:52;;;;;;;10.13;4.25;;;9.30;99.90;;;;;;12378607;28;20073;-36
2022/05/05 00:46:54;;;;;;;9.15;4.20;;;9.20;99.90;;;;;;12378892;28;20050;-38
2022/05/05 00:52:56;;;;;;;8.57;4.18;;;9.10;99.90;;;;;;12379400;28;20050;-37
2022/05/05 00:59:01;;;;;;;9.00;3.72;;;9.00;99.90;;;;;;12380664;28;20069;-36
2022/05/05 01:05:05;;;;;;;9.23;4.38;;;8.90;99.90;;;;;;12379290;28;20054;-38
2022/05/05 01:11:08;;;;;;;12.20;4.13;;;8.60;99.90;;;;;;12370733;28;20074;-36
2022/05/05 01:17:10;;;;;;;8.60;4.00;;;8.50;99.90;;;;;;12383912;28;20058;-38
2022/05/05 01:23:12;;;;;;;7.57;4.05;;;8.50;99.90;;;;;;12378211;28;20057;-36
2022/05/05 01:29:16;;;;;;;10.90;3.85;;;8.60;99.90;;;;;;12378385;28;20065;-38
2022/05/05 01:35:18;;;;;;;8.70;3.83;;;8.70;99.90;;;;;;12379730;28;20054;-38
2022/05/05 01:41:21;;;;;;;11.05;5.25;;;8.70;99.90;;;;;;12371068;28;20061;-36
2022/05/05 01:47:23;;;;;;;8.98;3.78;;;8.80;99.90;;;;;;12381161;28;20092;-36
2022/05/05 01:53:26;;;;;;;10.85;5.00;;;8.90;99.90;;;;;;12377633;28;20093;-37
2022/05/05 01:59:27;;;;;;;10.85;4.93;;;9.00;99.90;;;;;;12376555;28;20066;-38
2022/05/05 02:05:29;;;;;;;10.00;4.25;;;9.00;99.90;;;;;;12377722;28;20407;-38
2022/05/05 02:11:31;;;;;;;10.13;4.28;;;9.10;99.90;;;;;;12373501;28;20054;-37
2022/05/05 02:17:35;;;;;;;10.40;4.10;;;9.00;99.90;;;;;;12379239;28;20054;-37
2022/05/05 02:23:37;;;;;;;11.40;4.32;;;9.10;99.90;;;;;;12376756;28;20058;-38
2022/05/05 02:29:42;;;;;;;11.73;5.07;;;9.10;99.90;;;;;;12376193;28;20058;-36
2022/05/05 02:35:44;;;;;;;9.90;4.18;;;9.30;99.90;;;;;;12374784;28;20073;-37
2022/05/05 02:41:46;;;;;;;12.18;4.15;;;9.40;99.90;;;;;;12373156;28;20137;-38
2022/05/05 02:47:49;;;;;;;11.05;3.78;;;9.40;99.90;;;;;;12373851;28;20534;-37
2022/05/05 03:00:13;;;;;;;9.75;4.85;;;9.30;99.90;;;;;;12374131;28;20046;-36
2022/05/05 03:06:15;;;;;;;13.70;4.60;;;9.20;99.90;;;;;;12374022;28;20127;-38
2022/05/05 03:12:17;;;;;;;9.52;4.57;;;8.90;99.90;;;;;;12374720;28;20146;-37
2022/05/05 03:18:19;;;;;;;10.88;4.82;;;9.00;99.90;;;;;;12374419;28;21077;-36
2022/05/05 03:24:21;;;;;;;8.52;4.72;;;9.20;99.90;;;;;;12374600;28;20093;-39
2022/05/05 03:30:23;;;;;;;16.83;5.35;;;9.00;99.90;;;;;;12375967;28;20050;-37
2022/05/05 03:36:25;;;;;;;12.63;5.25;;;8.90;99.90;;;;;;12377065;28;20481;-37
2022/05/05 03:42:28;;;;;;;12.52;6.05;;;9.00;99.90;;;;;;12372789;28;20057;-38
2022/05/05 03:48:32;;;;;;;8.52;5.20;;;9.10;99.90;;;;;;12372135;28;20104;-37
2022/05/05 03:54:34;;;;;;;11.87;4.87;;;9.10;99.90;;;;;;12373433;28;20046;-37
2022/05/05 04:00:36;;;;;;;9.98;4.75;;;9.10;99.90;;;;;;12371229;28;20482;-38
2022/05/05 04:06:38;;;;;;;13.43;5.13;;;8.90;99.90;;;;;;12372459;28;20920;-37
2022/05/05 04:12:40;;;;;;;12.43;4.93;;;9.00;99.90;;;;;;12372089;28;20059;-37
2022/05/05 04:18:43;;;;;;;10.10;5.20;;;9.00;99.90;;;;;;12378956;28;20046;-38
2022/05/05 04:24:46;;;;;;;11.77;5.97;;;8.90;99.90;;;;;;12372984;28;20121;-37
2022/05/05 04:30:48;;;;;;;18.42;5.75;;;8.80;99.90;;;;;;12375077;28;20628;-38
2022/05/05 04:36:50;;;;;;;11.35;5.72;;;8.90;99.90;;;;;;12374031;28;20054;-38
2022/05/05 04:42:52;;;;;;;11.20;5.65;;;8.90;99.90;;;;;;12379777;28;20160;-38
2022/05/05 04:48:54;;;;;;;14.73;5.88;;;9.00;99.90;;;;;;12380363;28;20145;-37
2022/05/05 04:54:56;;;;;;;12.40;5.25;;;9.10;99.90;;;;;;12381864;28;20070;-36
2022/05/05 05:00:58;;;;;;;9.52;5.20;;;9.20;99.90;;;;;;12380521;28;20054;-38
2022/05/05 05:07:00;;;;;;;10.52;5.47;;;9.30;99.90;;;;;;12381715;28;20089;-38
2022/05/05 05:13:02;;;;;;;9.38;5.78;;;9.30;99.90;;;;;;12378546;28;20152;-42
2022/05/05 05:19:05;;;;;;;14.32;7.03;;;9.20;99.90;;;;;;12381751;28;20058;-38
2022/05/05 05:25:07;;;;;;;14.55;6.55;;;9.30;99.90;;;;;;12377707;28;20149;-37
2022/05/05 05:31:09;;;;;;;13.32;6.15;;;9.30;99.90;;;;;;12379929;28;20053;-37
2022/05/05 05:37:13;;;;;;;13.23;5.90;;;9.40;99.90;;;;;;12383189;28;20061;-38
2022/05/05 05:43:16;;;;;;;13.55;6.10;;;9.50;99.90;;;;;;12380350;28;20132;-37
2022/05/05 05:49:18;;;;;;;12.50;6.50;;;9.60;99.90;;;;;;12380066;28;20058;-37
2022/05/05 05:55:20;;;;;;;12.63;6.47;;;9.70;99.90;;;;;;12381823;28;20483;-39
2022/05/05 06:03:53;;;;;;;12.43;6.22;;;9.90;99.90;;;;;;12377255;28;20054;-37
2022/05/05 06:07:48;;;;;;;14.85;6.13;;;10.00;99.90;;;;;;12380411;28;20141;-36
2022/05/05 06:13:57;;;;;;;14.63;6.53;;;10.10;99.90;;;;;;12377911;28;20046;-37
2022/05/05 06:20:00;;;;;;;14.73;6.53;;;10.10;99.90;;;;;;12381085;28;20070;-37
2022/05/05 06:26:02;;;;;;;12.70;6.15;;;10.40;99.90;;;;;;12379979;28;20062;-38
2022/05/05 06:32:05;;;;;;;13.75;6.95;;;10.40;99.90;;;;;;12377648;28;20054;-37
2022/05/05 06:38:11;;;;;;;15.55;6.43;;;10.50;99.90;;;;;;12375948;28;20054;-38
2022/05/05 06:44:22;;;;;;;13.45;6.00;;;10.60;99.90;;;;;;12388107;28;20506;-38
2022/05/05 06:50:25;;;;;;;12.82;6.20;;;10.80;99.90;;;;;;12387791;28;20057;-38
2022/05/05 06:56:29;;;;;;;14.00;5.68;;;10.80;99.90;;;;;;12388789;28;20823;-37
2022/05/05 07:02:31;;;;;;;19.93;6.87;;;11.00;99.90;;;;;;12382140;28;20058;-36
2022/05/05 07:15:12;;;;;;;8.85;5.80;;;11.30;99.90;;;;;;12355485;28;20050;-37
2022/05/05 07:21:14;;;;;;;13.60;5.30;;;11.50;99.90;;;;;;12430494;28;20100;-39
2022/05/05 07:27:17;;;;;;;10.25;4.88;;;11.60;99.90;;;;;;12417220;28;20076;-37
2022/05/05 07:33:20;;;;;;;9.90;5.18;;;12.00;99.90;;;;;;12434257;28;20053;-36
2022/05/05 07:39:23;;;;;;;7.75;3.30;;;12.20;99.90;;;;;;12434075;28;20053;-37
2022/05/05 07:45:25;;;;;;;10.65;4.15;;;12.30;99.90;;;;;;12433542;28;20144;-42
2022/05/05 07:51:28;;;;;;;12.85;5.05;;;12.30;99.90;;;;;;12431458;28;20058;-38
2022/05/05 07:57:30;;;;;;;15.20;4.25;;;12.50;99.90;;;;;;12433343;28;20064;-39
2022/05/05 08:03:33;;;;;;;9.13;4.03;;;12.30;99.90;;;;;;12403319;28;20434;-38
2022/05/05 08:09:36;;;;;;;8.20;3.60;;;12.40;99.90;;;;;;12431235;28;20184;-37
2022/05/05 08:15:58;;;;;;;8.52;3.65;;;12.40;99.90;;;;;;12440388;28;20053;-37
2022/05/05 08:22:00;;;;;;;7.10;3.60;;;12.70;99.90;;;;;;12439025;28;20046;-38
2022/05/05 08:34:23;;;;;;;5.68;3.22;;;13.30;99.90;;;;;;12435255;28;20045;-37
2022/05/05 08:40:26;;;;;;;6.93;3.25;;;13.40;99.90;;;;;;12431813;28;20093;-39
2022/05/05 08:46:33;;;;;;;8.15;3.42;;;13.60;99.90;;;;;;12433700;28;20103;-38
2022/05/05 08:52:48;;;;;;;6.05;3.20;;;13.50;99.90;;;;;;12433219;28;20057;-38
2022/05/05 08:58:50;;;;;;;6.70;2.67;;;13.70;99.90;;;;;;12434438;28;20494;-39
2022/05/05 09:04:52;;;;;;;9.32;3.40;;;13.80;99.90;;;;;;12431204;28;20551;-37
2022/05/05 09:11:01;;;;;;;8.05;3.20;;;13.80;99.90;;;;;;12432885;28;20054;-39
2022/05/05 09:17:05;;;;;;;12.98;3.33;;;13.80;99.90;;;;;;12430859;28;20107;-39
2022/05/05 09:23:07;;;;;;;;;;;14.20;99.90;;;;;;12414009;28;20479;-38
2022/05/05 09:29:19;;;;;;;6.70;2.28;;;14.70;99.90;;;;;;12430175;28;19921;-39
2022/05/05 09:35:23;;;;;;;;;;;15.00;99.90;;;;;;12430995;28;20149;-37
2022/05/05 09:41:30;;;;;;;8.35;3.17;;;14.90;99.90;;;;;;12427819;28;19957;-37
2022/05/05 09:47:32;;;;;;;7.00;2.78;;;14.90;99.90;;;;;;12426854;28;20069;-37
2022/05/05 10:00:03;;;;;;;6.97;2.63;;;15.30;99.90;;;;;;12428097;28;20050;-40
2022/05/05 10:06:08;;;;;;;6.07;2.30;;;15.60;99.90;;;;;;12426688;28;20414;-37
2022/05/05 10:12:11;;;;;;;5.18;2.38;;;15.90;99.90;;;;;;12426836;28;20137;-39
2022/05/05 10:18:13;;;;;;;4.28;2.50;;;15.80;99.90;;;;;;12427619;28;20072;-38
2022/05/05 10:24:28;;;;;;;7.75;2.40;;;16.20;99.90;;;;;;12429189;28;20107;-39
2022/05/05 10:30:35;;;;;;;7.50;2.20;;;16.50;99.90;;;;;;12426359;28;20049;-38
2022/05/05 10:36:38;;;;;;;7.07;2.42;;;17.00;99.90;;;;;;12425338;28;20141;-38
2022/05/05 10:42:45;;;;;;;6.55;2.70;;;17.20;99.90;;;;;;12427402;28;20085;-39
2022/05/05 10:48:47;;;;;;;6.60;2.67;;;17.00;99.90;;;;;;12428296;28;20077;-39
2022/05/05 10:54:55;;;;;;;4.82;2.38;;;17.30;99.90;;;;;;12421962;28;20065;-39
2022/05/05 11:00:59;;;;;;;6.63;2.80;;;17.70;99.90;;;;;;12428793;28;20053;-39
2022/05/05 11:07:20;;;;;;;6.50;2.10;;;17.40;99.90;;;;;;12424289;28;20053;-42
2022/05/05 11:13:42;;;;;;;5.70;2.55;;;17.40;99.90;;;;;;12423496;28;20057;-37
2022/05/05 11:26:05;;;;;;;8.52;2.08;;;18.00;99.90;;;;;;12421115;28;20070;-38
2022/05/05 11:32:08;;;;;;;8.63;2.30;;;17.70;99.90;;;;;;12418827;28;20419;-39
2022/05/05 11:38:10;;;;;;;9.88;2.60;;;17.90;99.90;;;;;;12423892;28;20053;-39
2022/05/05 11:44:17;;;;;;;6.63;2.22;;;17.60;99.90;;;;;;12424290;28;20490;-39
2022/05/05 11:50:19;;;;;;;5.60;2.05;;;17.80;99.90;;;;;;12421604;28;20417;-39
2022/05/05 11:56:21;;;;;;;5.80;2.22;;;17.60;99.90;;;;;;12423220;28;20131;-39
2022/05/05 12:02:25;;;;;;;3.83;1.80;;;18.10;99.90;;;;;;12421863;28;20081;-37
2022/05/05 12:08:28;;;;;;;4.63;1.70;;;18.20;99.90;;;;;;12420614;28;20689;-37
2022/05/05 12:14:43;;;;;;;3.42;1.50;;;18.80;99.90;;;;;;12400477;28;20053;-39
2022/05/05 12:20:45;;;;;;;2.80;1.13;;;18.90;99.90;;;;;;12420175;28;20454;-38
2022/05/05 12:26:47;;;;;;;3.33;1.60;;;19.20;99.90;;;;;;12419330;28;20053;-38
2022/05/05 12:32:50;;;;;;;4.22;1.30;;;19.00;99.90;;;;;;12403885;28;20140;-38
2022/05/05 12:38:52;;;;;;;4.70;1.17;;;18.90;99.90;;;;;;12424284;28;20121;-37
2022/05/05 12:44:54;;;;;;;2.97;1.20;;;18.80;99.90;;;;;;12424332;28;20134;-40
2022/05/05 12:50:57;;;;;;;4.18;1.65;;;18.90;99.90;;;;;;12421675;28;20817;-37
2022/05/05 13:03:21;;;;;;;5.13;1.40;;;19.00;99.90;;;;;;12431726;28;20414;-39
2022/05/05 13:09:23;;;;;;;3.65;1.25;;;19.20;99.90;;;;;;12429719;28;20046;-37
2022/05/05 13:15:25;;;;;;;2.58;1.35;;;19.10;99.90;;;;;;12427971;28;20050;-39
2022/05/05 13:21:28;;;;;;;3.80;1.00;;;18.70;99.90;;;;;;12427207;28;20670;-37
2022/05/05 13:27:30;;;;;;;4.07;1.75;;;18.80;99.90;;;;;;12424169;28;20751;-38
2022/05/05 13:33:32;;;;;;;2.85;1.25;;;19.00;99.90;;;;;;12426490;28;20085;-39
2022/05/05 13:39:33;;;;;;;3.65;1.30;;;19.10;99.90;;;;;;12423678;28;20119;-37
2022/05/05 13:45:36;;;;;;;3.00;1.35;;;19.00;99.90;;;;;;12424322;28;20406;-39
2022/05/05 13:51:38;;;;;;;4.50;1.45;;;19.10;99.90;;;;;;12428997;28;20061;-36
2022/05/05 13:58:04;;;;;;;3.10;1.17;;;19.20;99.90;;;;;;12426291;28;20444;-37
2022/05/05 14:04:05;;;;;;;4.13;1.67;;;19.40;99.90;;;;;;12426574;28;20042;-39
2022/05/05 14:16:31;;;;;;;2.67;1.23;;;19.30;99.90;;;;;;12423619;28;20045;-39
2022/05/05 14:22:33;;;;;;;3.30;1.00;;;18.70;99.90;;;;;;12424420;28;20537;-39
2022/05/05 14:28:35;;;;;;;3.15;0.70;;;18.80;99.90;;;;;;12423351;28;20050;-39
2022/05/05 14:34:37;;;;;;;1.88;0.65;;;19.30;99.90;;;;;;12425077;28;20064;-37
2022/05/05 14:40:39;;;;;;;2.70;0.70;;;19.60;99.90;;;;;;12423557;28;20107;-39
2022/05/05 14:46:41;;;;;;;1.88;0.65;;;19.40;99.90;;;;;;12422868;28;20092;-38
2022/05/05 14:52:43;;;;;;;4.22;1.38;;;19.50;99.90;;;;;;12423385;28;20077;-38
2022/05/05 14:58:45;;;;;;;3.00;1.10;;;19.00;99.90;;;;;;12422147;28;20509;-39
2022/05/05 15:04:47;;;;;;;2.15;0.93;;;18.20;99.90;;;;;;12422883;28;20046;-38
2022/05/05 15:10:49;;;;;;;1.90;0.90;;;17.80;99.90;;;;;;12425642;28;20080;-38
2022/05/05 15:16:51;;;;;;;5.45;1.02;;;17.40;99.90;;;;;;12420849;28;20601;-38
2022/05/05 15:22:55;;;;;;;2.80;1.00;;;17.40;99.90;;;;;;12419999;28;20049;-37
2022/05/05 15:28:58;;;;;;;4.68;1.17;;;17.30;99.90;;;;;;12423180;28;20060;-38
2022/05/05 15:35:03;;;;;;;4.10;1.30;;;17.20;99.90;;;;;;12419893;28;20655;-39
2022/05/05 15:41:05;;;;;;;3.67;0.80;;;17.10;99.90;;;;;;12415603;28;20053;-38
2022/05/05 15:47:09;;;;;;;2.33;0.80;;;17.10;99.90;;;;;;12402302;28;20093;-39
2022/05/05 15:53:11;;;;;;;2.63;1.00;;;16.90;99.90;;;;;;12419349;28;20057;-37
2022/05/05 15:59:13;;;;;;;2.83;0.80;;;17.00;99.90;;;;;;12420705;28;20057;-40
2022/05/05 16:05:17;;;;;;;2.67;1.00;;;17.00;99.90;;;;;;12416550;28;20046;-37
2022/05/05 16:11:19;;;;;;;4.57;0.90;;;17.00;99.90;;;;;;12416411;28;20418;-39
2022/05/05 16:17:21;;;;;;;3.97;1.13;;;17.10;99.90;;;;;;12424524;28;20054;-37
2022/05/05 16:23:24;;;;;;;4.05;1.10;;;17.00;99.90;;;;;;12419585;28;20045;-37
2022/05/05 16:36:01;;;;;;;;;;;16.80;99.90;;;;;;12375368;28;20589;-37
2022/05/05 16:42:03;;;;;;;5.72;1.30;;;16.60;99.90;;;;;;12428017;28;19980;-38
2022/05/05 16:48:06;;;;;;;3.38;1.40;;;16.50;99.90;;;;;;12429317;28;20502;-37
2022/05/05 16:54:08;;;;;;;2.45;1.10;;;16.50;99.90;;;;;;12426874;28;20525;-39
2022/05/05 17:00:10;;;;;;;4.05;0.80;;;16.70;99.90;;;;;;12428106;28;20172;-37
2022/05/05 17:06:13;;;;;;;2.83;1.00;;;17.40;99.90;;;;;;12426692;28;20044;-39
2022/05/05 17:12:15;;;;;;;5.50;1.10;;;17.70;99.90;;;;;;12425290;28;20815;-39
2022/05/05 17:18:16;;;;;;;7.22;1.02;;;17.40;99.90;;;;;;12427647;28;20054;-39
2022/05/05 17:24:19;;;;;;;5.10;0.70;;;17.00;99.90;;;;;;12427216;28;20714;-39
2022/05/05 17:30:21;;;;;;;4.18;1.20;;;16.80;99.90;;;;;;12425381;28;20061;-39
2022/05/05 17:36:23;;;;;;;3.08;0.85;;;16.50;99.90;;;;;;12429368;28;20112;-38
2022/05/05 17:42:25;;;;;;;7.20;1.10;;;16.20;99.90;;;;;;12426450;28;20089;-37
2022/05/05 17:54:48;;;;;;;2.55;1.10;;;15.80;99.90;;;;;;12433735;28;20049;-39
2022/05/05 18:00:50;;;;;;;4.47;1.15;;;15.70;99.90;;;;;;12430432;28;20145;-37
2022/05/05 18:06:52;;;;;;;1.58;1.00;;;15.50;99.90;;;;;;12429909;28;20057;-37
2022/05/05 18:12:55;;;;;;;2.08;1.10;;;15.60;99.90;;;;;;12433097;28;20054;-39
2022/05/05 18:18:58;;;;;;;2.13;1.03;;;15.70;99.90;;;;;;12429930;28;20563;-38
2022/05/05 18:25:00;;;;;;;2.30;1.02;;;15.70;99.90;;;;;;12430061;28;20045;-38
2022/05/05 18:31:03;;;;;;;2.55;1.23;;;15.60;99.90;;;;;;12429343;28;20046;-39
2022/05/05 18:37:06;;;;;;;3.88;1.40;;;15.50;99.90;;;;;;12428376;28;20141;-39
2022/05/05 18:43:09;;;;;;;2.53;1.30;;;15.30;99.90;;;;;;12430058;28;20074;-38
2022/05/05 18:49:11;;;;;;;4.38;1.40;;;15.10;99.90;;;;;;12431352;28;20050;-37
2022/05/05 18:55:13;;;;;;;2.13;1.20;;;14.90;99.90;;;;;;12428586;28;20097;-37
2022/05/05 19:01:19;;;;;;;3.55;1.55;;;14.70;99.90;;;;;;12431353;28;20073;-36
2022/05/05 19:07:21;;;;;;;4.70;1.20;;;14.60;99.90;;;;;;12429669;28;20077;-38
2022/05/05 19:13:23;;;;;;;3.38;1.48;;;14.50;99.90;;;;;;12425160;28;20058;-39
2022/05/05 19:19:25;;;;;;;3.33;1.67;;;14.40;99.90;;;;;;12424405;28;20141;-38
2022/05/05 19:25:27;;;;;;;4.63;1.50;;;14.30;99.90;;;;;;12425181;28;20076;-37
2022/05/05 19:31:30;;;;;;;6.55;1.40;;;14.20;99.90;;;;;;12422329;28;20099;-38
2022/05/05 19:37:32;;;;;;;2.75;1.40;;;14.10;99.90;;;;;;12422516;28;20058;-37
2022/05/05 19:43:38;;;;;;;3.05;1.42;;;14.30;99.90;;;;;;12424055;28;20107;-37
2022/05/05 19:49:40;;;;;;;4.22;1.50;;;14.30;99.90;;;;;;12419614;28;20069;-37
2022/05/05 20:02:02;;;;;;;4.57;2.92;;;13.90;99.90;;;;;;12424346;28;20054;-38
2022/05/05 20:08:05;;;;;;;2.90;1.58;;;13.90;99.90;;;;;;12426115;28;20514;-38
2022/05/05 20:14:07;;;;;;;4.00;1.63;;;13.90;99.90;;;;;;12394896;28;1152592;-38
2022/05/05 20:20:10;;;;;;;2.78;1.40;;;13.70;99.90;;;;;;12437415;28;20061;-38
2022/05/05 20:26:13;;;;;;;2.03;1.20;;;13.60;99.90;;;;;;12415848;28;20061;-38
2022/05/05 20:32:17;;;;;;;2.60;1.60;;;13.50;99.90;;;;;;12433189;28;20042;-37
2022/05/05 20:38:19;;;;;;;;;;;13.40;99.90;;;;;;12437492;28;20449;-38
2022/05/05 20:44:23;;;;;;;2.75;1.40;;;13.30;99.90;;;;;;12433363;28;19921;-38
2022/05/05 20:50:29;;;;;;;4.88;1.60;;;13.30;99.90;;;;;;12431631;28;20939;-39
2022/05/05 20:56:31;;;;;;;3.45;1.50;;;13.10;99.90;;;;;;12433920;28;20486;-37
2022/05/05 21:02:39;;;;;;;4.95;1.33;;;12.90;99.90;;;;;;12424277;28;20045;-38
2022/05/05 21:08:41;;;;;;;2.42;1.40;;;12.90;99.90;;;;;;12435236;28;20588;-40
2022/05/05 21:14:44;;;;;;;3.20;1.70;;;12.90;99.90;;;;;;12430519;28;20057;-37
2022/05/05 21:27:07;;;;;;;4.57;1.60;;;12.80;99.90;;;;;;12436000;28;20056;-37
2022/05/05 21:33:10;;;;;;;4.80;1.63;;;12.70;99.90;;;;;;12431390;28;20049;-36
2022/05/05 21:39:12;;;;;;;3.90;1.35;;;12.60;99.90;;;;;;12430696;28;20128;-38
2022/05/05 21:45:14;;;;;;;4.05;1.27;;;12.50;99.90;;;;;;12431052;28;20119;-38
2022/05/05 21:51:16;;;;;;;4.55;1.70;;;12.40;99.90;;;;;;12432343;28;20048;-37
2022/05/05 21:57:18;;;;;;;2.65;1.55;;;12.30;99.90;;;;;;12431428;28;20050;-37
2022/05/05 22:03:22;;;;;;;2.60;1.55;;;12.20;99.90;;;;;;12430114;28;20077;-38
2022/05/05 22:09:24;;;;;;;3.33;2.00;;;12.10;99.90;;;;;;12429329;28;20061;-37
2022/05/05 22:15:26;;;;;;;3.15;1.60;;;12.00;99.90;;;;;;12430438;28;20054;-38
2022/05/05 22:21:28;;;;;;;4.15;1.77;;;11.80;99.90;;;;;;12430081;28;20053;-37
2022/05/05 22:27:30;;;;;;;5.47;2.30;;;11.80;99.90;;;;;;12429299;28;20057;-38
2022/05/05 22:33:32;;;;;;;5.22;2.42;;;11.80;99.90;;;;;;12427059;28;20056;-39
2022/05/05 22:39:35;;;;;;;6.10;2.95;;;11.70;99.90;;;;;;12430497;28;20462;-37
2022/05/05 22:45:36;;;;;;;4.65;2.63;;;11.80;99.90;;;;;;12425129;28;20050;-37
2022/05/05 22:51:39;;;;;;;4.97;2.33;;;11.80;99.90;;;;;;12427391;28;20099;-37
2022/05/05 22:57:41;;;;;;;4.75;2.67;;;11.70;99.90;;;;;;12428377;28;20057;-38
2022/05/05 23:03:43;;;;;;;5.45;2.88;;;11.60;99.90;;;;;;12426302;28;20044;-37
2022/05/05 23:09:45;;;;;;;5.05;2.80;;;11.40;99.90;;;;;;12426871;28;20054;-37
2022/05/05 23:15:47;;;;;;;6.65;2.55;;;11.40;99.90;;;;;;12428170;28;20092;-38
2022/05/05 23:21:50;;;;;;;7.72;2.40;;;11.30;99.90;;;;;;12425186;28;20611;-37
2022/05/05 23:27:56;;;;;;;5.47;2.50;;;11.20;99.90;;;;;;12425231;28;20478;-37
2022/05/05 23:40:19;;;;;;;4.53;2.65;;;11.00;99.90;;;;;;12423670;28;20062;-39
2022/05/05 23:46:21;;;;;;;4.85;2.45;;;10.80;99.90;;;;;;12424645;28;20080;-37
2022/05/05 23:52:24;;;;;;;5.38;2.20;;;10.70;99.90;;;;;;12423593;28;20058;-38
2022/05/05 23:58:26;;;;;;;6.65;2.58;;;10.60;99.90;;;;;;12425753;28;20569;-38
